Terminal Aerodrome Forecast
Issued by NWS Buffalo, NY

Home | Current Version | Previous Version | Text Only | Print | Product List | Glossary On
Versions: 1 2 3 4 5 6 7 8 9 10 11 12 13 14 15 16 17 18 19 20 21 22 23
882
FTUS41 KBUF 232108 AAA
TAFROC
TAF AMD
KROC 232108Z 2321/2418 34014G20KT P6SM FEW080
     FM240000 31009KT P6SM SKC
     FM240200 VRB03KT P6SM SKC
     FM241600 VRB03KT P6SM FEW050 FEW250=

USA.gov is the U.S. government's official web portal to all federal, state and local government web resources and services.